sensor_id;sensor_type;location;lat;lon;timestamp;pressure;altitude;pressure_sealevel;temperature;humidity
57114;BME280;42994;51.606;9.988;2023-03-15T00:00:11;98405.25;;;0.70;100.00
57114;BME280;42994;51.606;9.988;2023-03-15T00:02:38;98411.22;;;0.72;100.00
57114;BME280;42994;51.606;9.988;2023-03-15T00:05:06;98410.00;;;0.66;100.00
57114;BME280;42994;51.606;9.988;2023-03-15T00:07:33;98410.28;;;0.63;100.00
57114;BME280;42994;51.606;9.988;2023-03-15T00:09:59;98417.38;;;0.63;100.00
57114;BME280;42994;51.606;9.988;2023-03-15T00:12:26;98405.44;;;0.59;100.00
57114;BME280;42994;51.606;9.988;2023-03-15T00:14:54;98416.38;;;0.64;100.00
57114;BME280;42994;51.606;9.988;2023-03-15T00:17:21;98423.47;;;0.63;100.00
57114;BME280;42994;51.606;9.988;2023-03-15T00:19:47;98422.09;;;0.59;100.00
57114;BME280;42994;51.606;9.988;2023-03-15T00:22:14;98423.31;;;0.65;100.00
57114;BME280;42994;51.606;9.988;2023-03-15T00:24:40;98428.47;;;0.66;100.00
57114;BME280;42994;51.606;9.988;2023-03-15T00:27:08;98422.38;;;0.66;100.00
57114;BME280;42994;51.606;9.988;2023-03-15T00:29:35;98421.41;;;0.57;100.00
57114;BME280;42994;51.606;9.988;2023-03-15T00:32:03;98422.09;;;0.59;100.00
57114;BME280;42994;51.606;9.988;2023-03-15T00:34:31;98424.28;;;0.64;100.00
57114;BME280;42994;51.606;9.988;2023-03-15T00:36:58;98424.88;;;0.57;100.00
57114;BME280;42994;51.606;9.988;2023-03-15T00:39:24;98432.94;;;0.46;100.00
57114;BME280;42994;51.606;9.988;2023-03-15T00:41:51;98433.34;;;0.51;100.00
57114;BME280;42994;51.606;9.988;2023-03-15T00:44:21;98443.50;;;0.46;100.00
57114;BME280;42994;51.606;9.988;2023-03-15T00:46:48;98451.41;;;0.36;100.00
57114;BME280;42994;51.606;9.988;2023-03-15T00:49:16;98447.41;;;0.42;100.00
57114;BME280;42994;51.606;9.988;2023-03-15T00:51:42;98446.28;;;0.35;100.00
57114;BME280;42994;51.606;9.988;2023-03-15T00:54:09;98451.56;;;0.35;100.00
57114;BME280;42994;51.606;9.988;2023-03-15T00:56:38;98460.44;;;0.34;100.00
57114;BME280;42994;51.606;9.988;2023-03-15T00:59:05;98457.25;;;0.30;100.00
57114;BME280;42994;51.606;9.988;2023-03-15T01:01:31;98459.75;;;0.22;100.00
57114;BME280;42994;51.606;9.988;2023-03-15T01:03:58;98460.44;;;0.24;100.00
57114;BME280;42994;51.606;9.988;2023-03-15T01:06:27;98455.88;;;0.26;100.00
57114;BME280;42994;51.606;9.988;2023-03-15T01:08:54;98466.41;;;0.26;100.00
57114;BME280;42994;51.606;9.988;2023-03-15T01:11:23;98471.94;;;0.23;100.00
57114;BME280;42994;51.606;9.988;2023-03-15T01:13:50;98454.31;;;0.24;100.00
57114;BME280;42994;51.606;9.988;2023-03-15T01:16:17;98460.16;;;0.17;100.00
57114;BME280;42994;51.606;9.988;2023-03-15T01:18:44;98471.69;;;0.26;100.00
57114;BME280;42994;51.606;9.988;2023-03-15T01:21:13;98462.94;;;0.26;100.00
57114;BME280;42994;51.606;9.988;2023-03-15T01:23:41;98452.09;;;0.29;100.00
57114;BME280;42994;51.606;9.988;2023-03-15T01:26:11;98464.03;;;0.23;100.00
57114;BME280;42994;51.606;9.988;2023-03-15T01:28:38;98459.88;;;0.21;100.00
57114;BME280;42994;51.606;9.988;2023-03-15T01:31:06;98463.06;;;0.14;100.00
57114;BME280;42994;51.606;9.988;2023-03-15T01:33:32;98464.06;;;0.13;100.00
57114;BME280;42994;51.606;9.988;2023-03-15T01:36:01;98462.69;;;0.09;100.00
57114;BME280;42994;51.606;9.988;2023-03-15T01:38:29;98473.06;;;0.11;100.00
57114;BME280;42994;51.606;9.988;2023-03-15T01:40:58;98474.16;;;0.08;100.00
57114;BME280;42994;51.606;9.988;2023-03-15T01:43:26;98472.09;;;0.12;100.00
57114;BME280;42994;51.606;9.988;2023-03-15T01:46:16;98468.22;;;0.06;100.00
57114;BME280;42994;51.606;9.988;2023-03-15T01:48:49;98468.91;;;0.08;100.00
57114;BME280;42994;51.606;9.988;2023-03-15T01:51:26;98475.28;;;0.06;100.00
57114;BME280;42994;51.606;9.988;2023-03-15T01:53:58;98477.50;;;0.10;100.00
57114;BME280;42994;51.606;9.988;2023-03-15T01:56:30;98477.38;;;0.12;100.00
57114;BME280;42994;51.606;9.988;2023-03-15T01:58:58;98484.16;;;0.05;100.00
57114;BME280;42994;51.606;9.988;2023-03-15T02:01:26;98481.38;;;0.06;100.00
57114;BME280;42994;51.606;9.988;2023-03-15T02:03:58;98489.84;;;0.10;100.00
57114;BME280;42994;51.606;9.988;2023-03-15T02:06:31;98485.41;;;0.01;100.00
57114;BME280;42994;51.606;9.988;2023-03-15T02:09:02;98472.75;;;-0.06;100.00
57114;BME280;42994;51.606;9.988;2023-03-15T02:11:35;98480.53;;;-0.04;100.00
57114;BME280;42994;51.606;9.988;2023-03-15T02:14:04;98485.38;;;-0.09;100.00
57114;BME280;42994;51.606;9.988;2023-03-15T02:16:34;98495.78;;;-0.08;100.00
57114;BME280;42994;51.606;9.988;2023-03-15T02:19:10;98490.53;;;0.02;100.00
57114;BME280;42994;51.606;9.988;2023-03-15T02:21:48;98498.03;;;-0.03;100.00
57114;BME280;42994;51.606;9.988;2023-03-15T02:24:27;98490.13;;;-0.03;100.00
57114;BME280;42994;51.606;9.988;2023-03-15T02:26:59;98493.56;;;-0.03;100.00
57114;BME280;42994;51.606;9.988;2023-03-15T02:29:27;98495.91;;;-0.09;100.00
57114;BME280;42994;51.606;9.988;2023-03-15T02:31:55;98500.91;;;-0.06;100.00
57114;BME280;42994;51.606;9.988;2023-03-15T02:34:24;98503.84;;;0.10;100.00
57114;BME280;42994;51.606;9.988;2023-03-15T02:36:51;98491.78;;;0.17;100.00
57114;BME280;42994;51.606;9.988;2023-03-15T02:39:20;98499.69;;;0.17;100.00
57114;BME280;42994;51.606;9.988;2023-03-15T02:41:49;98492.22;;;0.23;100.00
57114;BME280;42994;51.606;9.988;2023-03-15T02:44:20;98498.59;;;0.30;100.00
57114;BME280;42994;51.606;9.988;2023-03-15T02:46:52;98499.56;;;0.29;100.00
57114;BME280;42994;51.606;9.988;2023-03-15T02:49:22;98504.13;;;0.27;100.00
57114;BME280;42994;51.606;9.988;2023-03-15T02:51:49;98499.69;;;0.37;100.00
57114;BME280;42994;51.606;9.988;2023-03-15T02:54:15;98508.88;;;0.33;100.00
57114;BME280;42994;51.606;9.988;2023-03-15T02:56:42;98517.59;;;0.33;100.00
57114;BME280;42994;51.606;9.988;2023-03-15T02:59:09;98512.72;;;0.29;100.00
57114;BME280;42994;51.606;9.988;2023-03-15T03:01:37;98522.59;;;0.17;100.00
57114;BME280;42994;51.606;9.988;2023-03-15T03:04:05;98519.94;;;0.07;100.00
57114;BME280;42994;51.606;9.988;2023-03-15T03:06:32;98532.28;;;-0.03;100.00
57114;BME280;42994;51.606;9.988;2023-03-15T03:09:00;98531.84;;;-0.08;100.00
57114;BME280;42994;51.606;9.988;2023-03-15T03:11:29;98530.16;;;-0.09;100.00
57114;BME280;42994;51.606;9.988;2023-03-15T03:13:56;98535.69;;;-0.22;100.00
57114;BME280;42994;51.606;9.988;2023-03-15T03:16:23;98540.25;;;-0.24;100.00
57114;BME280;42994;51.606;9.988;2023-03-15T03:18:50;98537.59;;;-0.34;100.00
57114;BME280;42994;51.606;9.988;2023-03-15T03:21:19;98546.47;;;-0.35;100.00
57114;BME280;42994;51.606;9.988;2023-03-15T03:23:45;98542.19;;;-0.36;100.00
57114;BME280;42994;51.606;9.988;2023-03-15T03:26:13;98539.81;;;-0.29;100.00
57114;BME280;42994;51.606;9.988;2023-03-15T03:28:42;98538.16;;;-0.40;100.00
57114;BME280;42994;51.606;9.988;2023-03-15T03:31:21;98542.53;;;-0.50;100.00
57114;BME280;42994;51.606;9.988;2023-03-15T03:33:50;98547.00;;;-0.41;100.00
57114;BME280;42994;51.606;9.988;2023-03-15T03:36:19;98543.44;;;-0.30;100.00
57114;BME280;42994;51.606;9.988;2023-03-15T03:38:46;98550.66;;;-0.23;100.00
57114;BME280;42994;51.606;9.988;2023-03-15T03:41:13;98547.91;;;-0.21;100.00
57114;BME280;42994;51.606;9.988;2023-03-15T03:43:40;98548.59;;;-0.19;100.00
57114;BME280;42994;51.606;9.988;2023-03-15T03:46:07;98546.53;;;-0.15;100.00
57114;BME280;42994;51.606;9.988;2023-03-15T03:48:39;98546.94;;;-0.20;100.00
57114;BME280;42994;51.606;9.988;2023-03-15T03:51:05;98544.69;;;-0.25;100.00
57114;BME280;42994;51.606;9.988;2023-03-15T03:53:34;98552.59;;;-0.25;100.00
57114;BME280;42994;51.606;9.988;2023-03-15T03:56:03;98553.28;;;-0.23;100.00
57114;BME280;42994;51.606;9.988;2023-03-15T03:58:30;98556.47;;;-0.29;100.00
57114;BME280;42994;51.606;9.988;2023-03-15T04:01:02;98555.09;;;-0.33;100.00
57114;BME280;42994;51.606;9.988;2023-03-15T04:03:32;98563.84;;;-0.23;100.00
57114;BME280;42994;51.606;9.988;2023-03-15T04:06:09;98563.13;;;-0.25;100.00
57114;BME280;42994;51.606;9.988;2023-03-15T04:08:41;98567.59;;;-0.25;100.00
57114;BME280;42994;51.606;9.988;2023-03-15T04:11:11;98569.91;;;-0.32;100.00
57114;BME280;42994;51.606;9.988;2023-03-15T04:13:42;98575.59;;;-0.36;100.00
57114;BME280;42994;51.606;9.988;2023-03-15T04:16:09;98580.97;;;-0.38;100.00
57114;BME280;42994;51.606;9.988;2023-03-15T04:18:51;98574.34;;;-0.32;100.00
57114;BME280;42994;51.606;9.988;2023-03-15T04:21:20;98580.69;;;-0.35;100.00
57114;BME280;42994;51.606;9.988;2023-03-15T04:23:49;98581.69;;;-0.36;100.00
57114;BME280;42994;51.606;9.988;2023-03-15T04:26:47;98581.41;;;-0.33;100.00
57114;BME280;42994;51.606;9.988;2023-03-15T04:29:37;98578.06;;;-0.35;100.00
57114;BME280;42994;51.606;9.988;2023-03-15T04:32:16;98584.19;;;-0.34;100.00
57114;BME280;42994;51.606;9.988;2023-03-15T04:35:01;98584.75;;;-0.31;100.00
57114;BME280;42994;51.606;9.988;2023-03-15T04:37:39;98595.78;;;-0.37;100.00
57114;BME280;42994;51.606;9.988;2023-03-15T04:40:27;98593.84;;;-0.35;100.00
57114;BME280;42994;51.606;9.988;2023-03-15T04:43:05;98593.72;;;-0.33;100.00
57114;BME280;42994;51.606;9.988;2023-03-15T04:45:42;98587.91;;;-0.37;100.00
57114;BME280;42994;51.606;9.988;2023-03-15T04:48:20;98600.13;;;-0.36;100.00
57114;BME280;42994;51.606;9.988;2023-03-15T04:51:09;98599.00;;;-0.33;100.00
57114;BME280;42994;51.606;9.988;2023-03-15T04:53:58;98594.84;;;-0.36;100.00
57114;BME280;42994;51.606;9.988;2023-03-15T04:56:52;98603.56;;;-0.35;100.00
57114;BME280;42994;51.606;9.988;2023-03-15T04:59:42;98602.88;;;-0.37;100.00
57114;BME280;42994;51.606;9.988;2023-03-15T05:02:25;98613.56;;;-0.29;100.00
57114;BME280;42994;51.606;9.988;2023-03-15T05:05:01;98616.06;;;-0.28;100.00
57114;BME280;42994;51.606;9.988;2023-03-15T05:08:03;98625.22;;;-0.32;100.00
57114;BME280;42994;51.606;9.988;2023-03-15T05:10:39;98619.81;;;-0.30;100.00
57114;BME280;42994;51.606;9.988;2023-03-15T05:13:25;98626.72;;;-0.29;100.00
57114;BME280;42994;51.606;9.988;2023-03-15T05:16:11;98633.56;;;-0.27;100.00
57114;BME280;42994;51.606;9.988;2023-03-15T05:19:07;98631.03;;;-0.28;100.00
57114;BME280;42994;51.606;9.988;2023-03-15T05:21:54;98634.38;;;-0.26;100.00
57114;BME280;42994;51.606;9.988;2023-03-15T05:24:56;98644.34;;;-0.30;100.00
57114;BME280;42994;51.606;9.988;2023-03-15T05:27:34;98648.66;;;-0.29;100.00
57114;BME280;42994;51.606;9.988;2023-03-15T05:30:23;98651.72;;;-0.24;100.00
57114;BME280;42994;51.606;9.988;2023-03-15T05:33:25;98647.28;;;-0.23;100.00
57114;BME280;42994;51.606;9.988;2023-03-15T05:36:15;98659.63;;;-0.24;100.00
57114;BME280;42994;51.606;9.988;2023-03-15T05:39:11;98663.91;;;-0.23;100.00
57114;BME280;42994;51.606;9.988;2023-03-15T05:41:56;98662.97;;;-0.22;100.00
57114;BME280;42994;51.606;9.988;2023-03-15T05:44:46;98674.59;;;-0.24;100.00
57114;BME280;42994;51.606;9.988;2023-03-15T05:47:24;98672.94;;;-0.25;100.00
57114;BME280;42994;51.606;9.988;2023-03-15T05:50:10;98682.22;;;-0.21;100.00
57114;BME280;42994;51.606;9.988;2023-03-15T05:53:03;98691.81;;;-0.20;100.00
57114;BME280;42994;51.606;9.988;2023-03-15T05:55:39;98690.84;;;-0.19;100.00
57114;BME280;42994;51.606;9.988;2023-03-15T05:58:21;98691.09;;;-0.22;100.00
57114;BME280;42994;51.606;9.988;2023-03-15T06:01:00;98710.09;;;-0.18;100.00
57114;BME280;42994;51.606;9.988;2023-03-15T06:03:52;98713.47;;;-0.16;100.00
57114;BME280;42994;51.606;9.988;2023-03-15T06:06:23;98714.41;;;-0.17;100.00
57114;BME280;42994;51.606;9.988;2023-03-15T06:08:50;98716.94;;;-0.16;100.00
57114;BME280;42994;51.606;9.988;2023-03-15T06:11:17;98719.69;;;-0.17;100.00
57114;BME280;42994;51.606;9.988;2023-03-15T06:13:44;98722.19;;;-0.16;100.00
57114;BME280;42994;51.606;9.988;2023-03-15T06:16:21;98720.50;;;-0.17;100.00
57114;BME280;42994;51.606;9.988;2023-03-15T06:18:52;98727.59;;;-0.17;100.00
57114;BME280;42994;51.606;9.988;2023-03-15T06:21:19;98738.00;;;-0.16;100.00
57114;BME280;42994;51.606;9.988;2023-03-15T06:23:46;98744.09;;;-0.15;100.00
57114;BME280;42994;51.606;9.988;2023-03-15T06:26:12;98742.28;;;-0.15;100.00
57114;BME280;42994;51.606;9.988;2023-03-15T06:28:39;98741.22;;;-0.12;100.00
57114;BME280;42994;51.606;9.988;2023-03-15T06:31:09;98746.72;;;-0.15;100.00
57114;BME280;42994;51.606;9.988;2023-03-15T06:33:45;98753.41;;;-0.11;100.00
57114;BME280;42994;51.606;9.988;2023-03-15T06:36:14;98760.34;;;-0.10;100.00
57114;BME280;42994;51.606;9.988;2023-03-15T06:38:41;98758.66;;;-0.11;100.00
57114;BME280;42994;51.606;9.988;2023-03-15T06:41:08;98766.56;;;-0.11;100.00
57114;BME280;42994;51.606;9.988;2023-03-15T06:43:37;98763.81;;;-0.10;100.00
57114;BME280;42994;51.606;9.988;2023-03-15T06:46:04;98770.66;;;-0.07;100.00
57114;BME280;42994;51.606;9.988;2023-03-15T06:48:31;98770.66;;;-0.07;100.00
57114;BME280;42994;51.606;9.988;2023-03-15T06:50:58;98778.97;;;-0.02;100.00
57114;BME280;42994;51.606;9.988;2023-03-15T06:53:27;98788.69;;;-0.03;100.00
57114;BME280;42994;51.606;9.988;2023-03-15T06:55:53;98788.81;;;-0.04;100.00
57114;BME280;42994;51.606;9.988;2023-03-15T06:58:20;98791.72;;;-0.07;100.00
57114;BME280;42994;51.606;9.988;2023-03-15T07:00:46;98790.38;;;-0.02;100.00
57114;BME280;42994;51.606;9.988;2023-03-15T07:03:14;98793.13;;;-0.03;100.00
57114;BME280;42994;51.606;9.988;2023-03-15T07:05:40;98809.63;;;-0.01;100.00
57114;BME280;42994;51.606;9.988;2023-03-15T07:08:07;98807.25;;;-0.04;100.00
57114;BME280;42994;51.606;9.988;2023-03-15T07:10:35;98813.97;;;0.00;100.00
57114;BME280;42994;51.606;9.988;2023-03-15T07:13:01;98826.16;;;0.01;100.00
57114;BME280;42994;51.606;9.988;2023-03-15T07:15:29;98822.56;;;0.02;100.00
57114;BME280;42994;51.606;9.988;2023-03-15T07:17:56;98825.91;;;0.04;100.00
57114;BME280;42994;51.606;9.988;2023-03-15T07:20:22;98831.28;;;0.03;100.00
57114;BME280;42994;51.606;9.988;2023-03-15T07:22:49;98841.84;;;0.03;100.00
57114;BME280;42994;51.606;9.988;2023-03-15T07:25:16;98835.34;;;0.07;100.00
57114;BME280;42994;51.606;9.988;2023-03-15T07:27:49;98845.06;;;0.06;100.00
57114;BME280;42994;51.606;9.988;2023-03-15T07:30:16;98840.59;;;0.07;100.00
57114;BME280;42994;51.606;9.988;2023-03-15T07:32:43;98850.31;;;0.06;100.00
57114;BME280;42994;51.606;9.988;2023-03-15T07:35:10;98852.84;;;0.08;100.00
57114;BME280;42994;51.606;9.988;2023-03-15T07:37:37;98861.44;;;0.10;100.00
57114;BME280;42994;51.606;9.988;2023-03-15T07:40:05;98859.63;;;0.10;100.00
57114;BME280;42994;51.606;9.988;2023-03-15T07:42:34;98866.31;;;0.14;100.00
57114;BME280;42994;51.606;9.988;2023-03-15T07:45:02;98865.59;;;0.12;100.00
57114;BME280;42994;51.606;9.988;2023-03-15T07:47:29;98868.94;;;0.14;100.00
57114;BME280;42994;51.606;9.988;2023-03-15T07:49:56;98857.06;;;0.20;100.00
57114;BME280;42994;51.606;9.988;2023-03-15T07:52:22;98875.38;;;0.22;100.00
57114;BME280;42994;51.606;9.988;2023-03-15T07:54:49;98873.59;;;0.22;100.00
57114;BME280;42994;51.606;9.988;2023-03-15T07:57:16;98873.44;;;0.24;100.00
57114;BME280;42994;51.606;9.988;2023-03-15T07:59:43;98874.03;;;0.27;100.00
57114;BME280;42994;51.606;9.988;2023-03-15T08:02:12;98871.25;;;0.29;100.00
57114;BME280;42994;51.606;9.988;2023-03-15T08:04:39;98876.03;;;0.35;100.00
57114;BME280;42994;51.606;9.988;2023-03-15T08:07:06;98874.22;;;0.35;100.00
57114;BME280;42994;51.606;9.988;2023-03-15T08:09:33;98875.81;;;0.48;100.00
57114;BME280;42994;51.606;9.988;2023-03-15T08:12:00;98869.44;;;0.50;100.00
57114;BME280;42994;51.606;9.988;2023-03-15T08:14:27;98884.09;;;0.64;100.00
57114;BME280;42994;51.606;9.988;2023-03-15T08:16:55;98882.28;;;0.65;100.00
57114;BME280;42994;51.606;9.988;2023-03-15T08:19:24;98887.03;;;0.71;100.00
57114;BME280;42994;51.606;9.988;2023-03-15T08:21:50;98887.31;;;0.68;100.00
57114;BME280;42994;51.606;9.988;2023-03-15T08:24:18;98885.09;;;0.73;100.00
57114;BME280;42994;51.606;9.988;2023-03-15T08:26:45;98892.00;;;0.64;100.00
57114;BME280;42994;51.606;9.988;2023-03-15T08:29:12;98901.72;;;0.64;100.00
57114;BME280;42994;51.606;9.988;2023-03-15T08:31:39;98907.72;;;0.66;100.00
57114;BME280;42994;51.606;9.988;2023-03-15T08:34:06;98909.50;;;0.65;100.00
57114;BME280;42994;51.606;9.988;2023-03-15T08:36:34;98916.56;;;0.65;100.00
57114;BME280;42994;51.606;9.988;2023-03-15T08:39:01;98919.78;;;0.68;100.00
57114;BME280;42994;51.606;9.988;2023-03-15T08:41:29;98927.47;;;0.71;100.00
57114;BME280;42994;51.606;9.988;2023-03-15T08:43:56;98919.84;;;0.78;100.00
57114;BME280;42994;51.606;9.988;2023-03-15T08:46:23;98923.44;;;0.77;100.00
57114;BME280;42994;51.606;9.988;2023-03-15T08:48:50;98933.47;;;0.83;100.00
57114;BME280;42994;51.606;9.988;2023-03-15T08:51:17;98925.47;;;0.94;100.00
57114;BME280;42994;51.606;9.988;2023-03-15T08:53:45;98933.25;;;0.96;100.00
57114;BME280;42994;51.606;9.988;2023-03-15T08:56:12;98935.34;;;1.02;100.00
57114;BME280;42994;51.606;9.988;2023-03-15T08:58:39;98933.72;;;1.11;100.00
57114;BME280;42994;51.606;9.988;2023-03-15T09:01:05;98940.28;;;1.17;100.00
57114;BME280;42994;51.606;9.988;2023-03-15T09:03:32;98942.41;;;1.23;100.00
57114;BME280;42994;51.606;9.988;2023-03-15T09:05:59;98954.22;;;1.28;100.00
57114;BME280;42994;51.606;9.988;2023-03-15T09:08:26;98949.38;;;1.33;100.00
57114;BME280;42994;51.606;9.988;2023-03-15T09:10:55;98950.22;;;1.34;100.00
57114;BME280;42994;51.606;9.988;2023-03-15T09:13:23;98950.09;;;1.36;100.00
57114;BME280;42994;51.606;9.988;2023-03-15T09:15:50;98965.94;;;1.45;100.00
57114;BME280;42994;51.606;9.988;2023-03-15T09:18:17;98960.78;;;1.44;100.00
57114;BME280;42994;51.606;9.988;2023-03-15T09:20:45;98965.97;;;1.55;100.00
57114;BME280;42994;51.606;9.988;2023-03-15T09:23:14;98974.31;;;1.60;100.00
57114;BME280;42994;51.606;9.988;2023-03-15T09:25:41;98987.00;;;1.66;100.00
57114;BME280;42994;51.606;9.988;2023-03-15T09:28:10;98991.31;;;1.67;100.00
57114;BME280;42994;51.606;9.988;2023-03-15T09:30:38;98997.16;;;1.61;100.00
57114;BME280;42994;51.606;9.988;2023-03-15T09:33:05;98997.16;;;1.71;100.00
57114;BME280;42994;51.606;9.988;2023-03-15T09:35:31;99001.63;;;1.70;100.00
57114;BME280;42994;51.606;9.988;2023-03-15T09:37:59;98998.56;;;1.75;100.00
57114;BME280;42994;51.606;9.988;2023-03-15T09:40:30;99007.78;;;1.81;100.00
57114;BME280;42994;51.606;9.988;2023-03-15T09:43:01;98998.16;;;1.70;100.00
57114;BME280;42994;51.606;9.988;2023-03-15T09:45:47;99011.06;;;1.73;100.00
57114;BME280;42994;51.606;9.988;2023-03-15T09:48:19;99014.97;;;1.69;100.00
57114;BME280;42994;51.606;9.988;2023-03-15T09:50:50;99014.25;;;1.67;100.00
57114;BME280;42994;51.606;9.988;2023-03-15T09:53:23;99025.94;;;1.64;100.00
57114;BME280;42994;51.606;9.988;2023-03-15T09:55:51;99012.19;;;1.70;100.00
57114;BME280;42994;51.606;9.988;2023-03-15T09:58:21;99017.28;;;1.62;100.00
57114;BME280;42994;51.606;9.988;2023-03-15T10:01:00;99027.50;;;1.77;100.00
57114;BME280;42994;51.606;9.988;2023-03-15T10:03:35;99021.94;;;1.80;100.00
57114;BME280;42994;51.606;9.988;2023-03-15T10:06:12;99029.06;;;1.89;100.00
57114;BME280;42994;51.606;9.988;2023-03-15T10:08:42;99036.47;;;2.05;100.00
57114;BME280;42994;51.606;9.988;2023-03-15T10:11:14;99038.34;;;1.73;100.00
57114;BME280;42994;51.606;9.988;2023-03-15T10:17:43;99037.81;;;1.89;100.00
57114;BME280;42994;51.606;9.988;2023-03-15T10:20:35;99047.00;;;1.95;100.00
57114;BME280;42994;51.606;9.988;2023-03-15T10:23:06;99046.31;;;1.93;100.00
57114;BME280;42994;51.606;9.988;2023-03-15T10:25:37;99046.16;;;1.85;100.00
57114;BME280;42994;51.606;9.988;2023-03-15T10:28:08;99047.56;;;1.99;100.00
57114;BME280;42994;51.606;9.988;2023-03-15T10:30:37;99051.34;;;1.96;100.00
57114;BME280;42994;51.606;9.988;2023-03-15T10:33:19;99041.50;;;2.18;100.00
57114;BME280;42994;51.606;9.988;2023-03-15T10:35:48;99045.41;;;2.14;100.00
57114;BME280;42994;51.606;9.988;2023-03-15T10:38:30;99050.13;;;2.29;100.00
57114;BME280;42994;51.606;9.988;2023-03-15T10:40:58;99051.28;;;2.46;100.00
57114;BME280;42994;51.606;9.988;2023-03-15T10:43:59;99059.19;;;2.66;100.00
57114;BME280;42994;51.606;9.988;2023-03-15T10:46:26;99055.72;;;2.56;100.00
57114;BME280;42994;51.606;9.988;2023-03-15T10:48:57;99048.75;;;2.74;100.00
57114;BME280;42994;51.606;9.988;2023-03-15T10:51:26;99059.19;;;2.66;100.00
57114;BME280;42994;51.606;9.988;2023-03-15T10:53:56;99063.66;;;2.65;100.00
57114;BME280;42994;51.606;9.988;2023-03-15T10:56:26;99074.38;;;2.64;100.00
57114;BME280;42994;51.606;9.988;2023-03-15T10:58:55;99057.25;;;2.68;100.00
57114;BME280;42994;51.606;9.988;2023-03-15T11:01:24;99049.03;;;2.71;100.00
57114;BME280;42994;51.606;9.988;2023-03-15T11:04:11;99057.09;;;2.69;100.00
57114;BME280;42994;51.606;9.988;2023-03-15T11:06:49;99059.63;;;2.71;100.00
57114;BME280;42994;51.606;9.988;2023-03-15T11:09:17;99054.59;;;2.87;100.00
57114;BME280;42994;51.606;9.988;2023-03-15T11:11:59;99048.03;;;3.01;100.00
57114;BME280;42994;51.606;9.988;2023-03-15T11:14:31;99053.66;;;3.26;100.00
57114;BME280;42994;51.606;9.988;2023-03-15T11:17:00;99056.53;;;3.42;100.00
57114;BME280;42994;51.606;9.988;2023-03-15T11:19:29;99052.78;;;3.45;100.00
57114;BME280;42994;51.606;9.988;2023-03-15T11:21:58;99056.13;;;3.47;100.00
57114;BME280;42994;51.606;9.988;2023-03-15T11:24:27;99064.16;;;3.55;100.00
57114;BME280;42994;51.606;9.988;2023-03-15T11:26:57;99062.88;;;3.59;100.00
57114;BME280;42994;51.606;9.988;2023-03-15T11:29:27;99056.56;;;3.70;100.00
57114;BME280;42994;51.606;9.988;2023-03-15T11:31:57;99058.19;;;3.81;100.00
57114;BME280;42994;51.606;9.988;2023-03-15T11:34:36;99054.03;;;3.78;100.00
57114;BME280;42994;51.606;9.988;2023-03-15T11:37:10;99070.75;;;3.79;100.00
57114;BME280;42994;51.606;9.988;2023-03-15T11:39:42;99059.16;;;3.52;100.00
57114;BME280;42994;51.606;9.988;2023-03-15T11:42:15;99062.47;;;3.64;100.00
57114;BME280;42994;51.606;9.988;2023-03-15T11:44:45;99071.44;;;3.53;100.00
57114;BME280;42994;51.606;9.988;2023-03-15T11:47:17;99080.84;;;3.75;100.00
57114;BME280;42994;51.606;9.988;2023-03-15T11:49:49;99078.69;;;3.51;100.00
57114;BME280;42994;51.606;9.988;2023-03-15T11:52:40;99073.22;;;3.62;100.00
57114;BME280;42994;51.606;9.988;2023-03-15T11:55:16;99075.47;;;3.85;100.00
57114;BME280;42994;51.606;9.988;2023-03-15T11:57:47;99077.97;;;3.87;100.00
57114;BME280;42994;51.606;9.988;2023-03-15T12:10:59;99097.47;;;3.68;100.00
57114;BME280;42994;51.606;9.988;2023-03-15T12:13:53;99097.06;;;3.62;100.00
57114;BME280;42994;51.606;9.988;2023-03-15T12:16:29;99097.00;;;3.72;100.00
57114;BME280;42994;51.606;9.988;2023-03-15T12:19:00;99092.09;;;3.87;100.00
57114;BME280;42994;51.606;9.988;2023-03-15T12:21:37;99092.91;;;3.88;100.00
57114;BME280;42994;51.606;9.988;2023-03-15T12:24:06;99095.91;;;4.02;100.00
57114;BME280;42994;51.606;9.988;2023-03-15T12:26:48;99099.09;;;4.06;100.00
57114;BME280;42994;51.606;9.988;2023-03-15T12:29:22;99090.41;;;4.14;100.00
57114;BME280;42994;51.606;9.988;2023-03-15T12:31:53;99089.44;;;4.15;100.00
57114;BME280;42994;51.606;9.988;2023-03-15T12:34:23;99097.72;;;4.30;100.00
57114;BME280;42994;51.606;9.988;2023-03-15T12:36:52;99092.34;;;4.39;100.00
57114;BME280;42994;51.606;9.988;2023-03-15T12:39:36;99102.56;;;4.34;100.00
57114;BME280;42994;51.606;9.988;2023-03-15T12:42:04;99102.69;;;4.15;100.00
57114;BME280;42994;51.606;9.988;2023-03-15T12:44:39;99099.16;;;3.96;100.00
57114;BME280;42994;51.606;9.988;2023-03-15T12:47:07;99105.59;;;3.94;100.00
57114;BME280;42994;51.606;9.988;2023-03-15T12:49:40;99113.31;;;3.87;100.00
57114;BME280;42994;51.606;9.988;2023-03-15T12:52:33;99116.84;;;3.68;100.00
57114;BME280;42994;51.606;9.988;2023-03-15T12:55:09;99110.00;;;3.38;100.00
57114;BME280;42994;51.606;9.988;2023-03-15T12:57:46;99106.00;;;3.61;100.00
57114;BME280;42994;51.606;9.988;2023-03-15T13:00:16;99110.13;;;3.83;100.00
57114;BME280;42994;51.606;9.988;2023-03-15T13:02:46;99105.09;;;3.80;100.00
57114;BME280;42994;51.606;9.988;2023-03-15T13:05:21;99109.31;;;3.73;100.00
57114;BME280;42994;51.606;9.988;2023-03-15T13:07:53;99119.19;;;3.81;100.00
57114;BME280;42994;51.606;9.988;2023-03-15T13:10:36;99132.22;;;3.64;100.00
57114;BME280;42994;51.606;9.988;2023-03-15T13:13:27;99133.53;;;3.41;100.00
57114;BME280;42994;51.606;9.988;2023-03-15T13:16:20;99135.69;;;2.98;100.00
57114;BME280;42994;51.606;9.988;2023-03-15T13:18:57;99129.97;;;2.83;100.00
57114;BME280;42994;51.606;9.988;2023-03-15T13:21:27;99126.34;;;2.94;100.00
57114;BME280;42994;51.606;9.988;2023-03-15T13:23:57;99126.50;;;2.93;100.00
57114;BME280;42994;51.606;9.988;2023-03-15T13:26:34;99119.78;;;2.79;100.00
57114;BME280;42994;51.606;9.988;2023-03-15T13:29:10;99118.81;;;2.89;100.00
57114;BME280;42994;51.606;9.988;2023-03-15T13:31:39;99122.56;;;2.97;100.00
57114;BME280;42994;51.606;9.988;2023-03-15T13:43:01;99104.81;;;3.36;100.00
57114;BME280;42994;51.606;9.988;2023-03-15T14:14:21;99115.28;;;4.13;100.00